Albany, MN

9:22 PM CDT on October 22, 2014 (GMT -0500)
Saint Johns University Campus | Change Station
CLOSE
Current Station
Personal Weather Station
Location: Collegeville, MN
Elevation: 1200 ft
Nearby Weather Stations

Elev 1200 ft 45.58 °N, 94.39 °W | Updated 3 minutes ago

Mostly Cloudy
Mostly Cloudy
57.1 °F
Feels Like 57.1 °F
N
5.0
Wind Variable Wind from SSE
Gusts 12.0 mph

Today
High -- | Low -- °F
--% Chance of Precip.
Yesterday
High -- | Low -- °F
Precip. -- in
7:44 AM 6:20 PM
Waning Crescent, 1% visible
Pressure 29.96 in
Visibility 10.0 miles
Clouds Overcast 2800 ft
Dew Point 47 °F
Humidity 69%
Rainfall 0.00 in
Snow Depth Not available.
UV 0.0 out of 12
Pollen 1.40 out of 12
Air Quality Not available.
Flu Activity Sporadic
METAR KD39 230213Z AUTO 15007KT 10SM -RA OVC028 12/10 A2996 RMK AO2 T01210095

More Conditions Fewer Conditions

Pressure 29.96 in
Visibility 10.0 miles
Clouds Overcast 2800 ft
Dew Point 47 °F
Humidity 69%
Rainfall 0.00 in
Snow Depth Not available.
UV 0.0 out of 12
Pollen 1.40 out of 12
Air Quality Not available.
Flu Activity Sporadic
METAR KD39 230213Z AUTO 15007KT 10SM -RA OVC028 12/10 A2996 RMK AO2 T01210095

More Conditions Fewer Conditions

10-Day Weather Forecast

Almanac

Astronomy

Oct. 22, 2014 Rise Set
Actual Time 7:44 AM CDT 6:20 PM CDT
Civil Twilight 7:13 AM CDT 6:50 PM CDT
Nautical Twilight 6:39 AM CDT 7:25 PM CDT
Astronomical Twilight 6:04 AM CDT 7:59 PM CDT
Moon 6:22 AM CDT (10/22) 5:50 PM CDT (10/22)
Length of Visible Light 11h 36m
Length of Day
10h 36m
Tomorrow will be 3m 1s shorter.
Waning Crescent, 1% of the Moon is Illuminated
Today
Waning Crescent
Oct 23
New
Oct 30
First Quarter
Nov 6
Full
Nov 14
Last Quarter

Today's Extremes

State Highs State Lows

Community

WunderPhotos

Upload Photos

1,764,109 photos uploaded!

Nearby

Snow Depth

Station Depth Elevation
No new snow has been reported.

Earthquake Activity

City Distance Mag. Time & Date
No recent earthquake activity has been reported nearby.
Minimum magnitude displayed is 2.5.

Coastal Water Temperatures

Place Temperature
No Stations Reporting

Nearby Weather Stations